KSWO/SWO METAR and TAF weather

Enter ICAO airport designator
Station Type Date Time Source
KSWO METAR 2022/11/30 16:53 UTC NOAA

KSWO 301653Z 02008KT 10SM CLR 04/M08 A3048 RMK AO2 SLP329 T00391078


Station Type Date Time Source
KSWO Decoded METAR 2022/11/30 16:53 UTC NOAA

STILLWATER REGIONAL AIRPORT, OK, United States (KSWO) 36-10N 97-05W 290M
Nov 30, 2022 - 11:53 AM EST / 2022.11.30 1653 UTC
Wind: from the NNE (020 degrees) at 9 MPH (8 KT):0
Visibility: 10 mile(s):0
Sky conditions: clear
Temperature: 39.0 F (3.9 C)
Dew Point: 18.0 F (-7.8 C)
Relative Humidity: 42%
Pressure (altimeter): 30.48 in. Hg (1032 hPa)
ob: KSWO 301653Z 02008KT 10SM CLR 04/M08 A3048 RMK AO2 SLP329 T00391078
cycle: 17

Station Type Date Time Source
KSWO TAF 2022/11/30 12:22 UTC NOAA

TAF KSWO 301120Z 3012/0112 34006KT P6SM SKC
FM302300 13007KT P6SM SCT250

Example: see airport list